Liberty, KS

6:53 PM CDT on September 01, 2014 (GMT -0500)
Coffeyville Municipal | Change Station
CLOSE
Current Station
Airport
Location: Coffeyville,
Elevation: 751 ft
Nearby Weather Stations

Elev 751 ft 37.09 °N, 95.57 °W | Updated 10 minutes ago

Mostly Cloudy
Mostly Cloudy
80 °F
Feels Like 87 °F
N
8
Wind Variable Wind from East

Today
High -- | Low -- °F
--% Chance of Precip.
Yesterday
High -- | Low -- °F
Precip. -- in
6:53 AM 7:50 PM
Waxing Crescent, 45% visible
Pressure 29.79 in
Visibility 10.0 miles
Clouds Few 2700 ft
Scattered Clouds 4500 ft
Mostly Cloudy 7000 ft
Heat Index 87 °F
Dew Point 79 °F
Humidity 96%
Rainfall 0.41 in
Snow Depth Not available.
UV 0 out of 12
Pollen 10.40 out of 12
Air Quality Not available.
Flu Activity Not available.
SPECI KCFV 012343Z AUTO 09007KT 10SM VCTS FEW027 SCT045 BKN070 27/26 A2979 RMK AO2 LTG DSNT E-SW RAB2256E39 TSE17B22E37 PRESFR P0017 T02670261

More Conditions Fewer Conditions

Pressure 29.79 in
Visibility 10.0 miles
Clouds Few 2700 ft
Scattered Clouds 4500 ft
Mostly Cloudy 7000 ft
Heat Index 87 °F
Dew Point 79 °F
Humidity 96%
Rainfall 0.41 in
Snow Depth Not available.
UV 0 out of 12
Pollen 10.40 out of 12
Air Quality Not available.
Flu Activity Not available.
SPECI KCFV 012343Z AUTO 09007KT 10SM VCTS FEW027 SCT045 BKN070 27/26 A2979 RMK AO2 LTG DSNT E-SW RAB2256E39 TSE17B22E37 PRESFR P0017 T02670261

More Conditions Fewer Conditions

10-Day Weather Forecast

Almanac

Astronomy

Sep. 01, 2014 Rise Set
Actual Time 6:53 AM CDT 7:50 PM CDT
Civil Twilight 6:26 AM CDT 8:17 PM CDT
Nautical Twilight 5:54 AM CDT 8:48 PM CDT
Astronomical Twilight 5:22 AM CDT 9:21 PM CDT
Moon 1:30 PM CDT No Moon Set
Length of Visible Light 13h 50m
Length of Day
12h 57m
Tomorrow will be 2m 17s shorter.
Waxing Crescent, 45% of the Moon is Illuminated
Today
Waxing Crescent
Sep 2
First Quarter
Sep 8
Full
Sep 15
Last Quarter
Sep 24
New

Today's Extremes

State Highs State Lows

Community

WunderPhotos

Upload Photos

1,749,440 photos uploaded!

Nearby

Snow Depth

Station Depth Elevation
No new snow has been reported.

Earthquake Activity

City Distance Mag. Time & Date
Perry, Oklahoma 119 miles 3.1 6:46 AM CDT
2014-09-01
Jones, Oklahoma 140 miles 3.1 1:49 PM CDT
2014-08-31
Minimum magnitude displayed is 2.5.

Coastal Water Temperatures

Place Temperature
No Stations Reporting

Nearby Weather Stations